Time;durP1;ratioP1;P1;durP2;ratioP2;P2;SDS_P1;SDS_P2;PMS_P1;PMS_P2;Temp;Humidity;BMP_temperature;BMP_pressure;BME280_temperature;BME280_humidity;BME280_pressure;Samples;Min_cycle;Max_cycle;Signal;HPM_P1;HPM_P2
2023/12/09 00:00:10;;;;;;;2.83;2.63;;;18.90;40.10;;;;;;5076794;28;20321;-89
2023/12/09 00:02:36;;;;;;;4.20;2.90;;;18.90;40.10;;;;;;5076561;28;20216;-89
2023/12/09 00:05:03;;;;;;;2.70;2.50;;;18.90;40.10;;;;;;5077598;28;20971;-86
2023/12/09 00:07:28;;;;;;;2.50;2.30;;;18.90;40.10;;;;;;5076349;28;20249;-87
2023/12/09 00:09:54;;;;;;;2.60;2.40;;;18.90;40.10;;;;;;5077074;28;20424;-88
2023/12/09 00:12:19;;;;;;;2.87;2.67;;;18.90;40.20;;;;;;5075042;28;20836;-87
2023/12/09 00:14:45;;;;;;;2.53;2.33;;;18.90;40.20;;;;;;5074905;28;20217;-88
2023/12/09 00:17:10;;;;;;;3.07;2.47;;;18.90;40.20;;;;;;5075918;28;20232;-87
2023/12/09 00:19:36;;;;;;;3.10;2.90;;;18.90;40.20;;;;;;5074206;27;20224;-88
2023/12/09 00:22:01;;;;;;;2.67;2.47;;;18.90;40.10;;;;;;5075379;28;20677;-88
2023/12/09 00:24:27;;;;;;;2.57;2.37;;;18.90;40.10;;;;;;5075112;28;20245;-88
2023/12/09 00:26:52;;;;;;;2.43;2.30;;;18.90;40.20;;;;;;5072724;28;20332;-87
2023/12/09 00:29:18;;;;;;;2.70;2.50;;;18.80;40.10;;;;;;5074072;28;21445;-87
2023/12/09 00:31:43;;;;;;;2.37;2.17;;;18.90;40.20;;;;;;5074338;28;20263;-89
2023/12/09 00:34:09;;;;;;;2.80;2.60;;;18.90;40.10;;;;;;5072449;28;20228;-89
2023/12/09 00:36:35;;;;;;;2.43;2.23;;;18.80;40.10;;;;;;5055718;28;20312;-87
2023/12/09 00:39:00;;;;;;;4.63;2.33;;;18.90;40.20;;;;;;5072302;28;20234;-88
2023/12/09 00:41:26;;;;;;;2.30;2.03;;;18.80;40.20;;;;;;5073536;28;20457;-89
2023/12/09 00:43:52;;;;;;;2.40;2.30;;;18.80;40.10;;;;;;5071815;28;20229;-89
2023/12/09 00:46:17;;;;;;;2.37;2.17;;;18.90;40.20;;;;;;5056230;28;20228;-88
2023/12/09 00:48:44;;;;;;;2.47;2.27;;;18.90;40.20;;;;;;5053780;28;20229;-86
2023/12/09 00:51:09;;;;;;;2.47;2.27;;;18.90;40.20;;;;;;5072854;28;20261;-86
2023/12/09 00:53:35;;;;;;;3.07;2.27;;;18.80;40.10;;;;;;5068798;27;20612;-86
2023/12/09 00:56:00;;;;;;;2.20;1.90;;;18.90;40.30;;;;;;5074649;28;20300;-86
2023/12/09 00:58:26;;;;;;;2.33;2.13;;;18.80;40.20;;;;;;5075469;28;20220;-89
2023/12/09 01:00:52;;;;;;;2.43;2.27;;;18.80;40.10;;;;;;5072153;28;20598;-87
2023/12/09 01:03:18;;;;;;;2.83;2.63;;;18.80;40.10;;;;;;5070774;28;20306;-88
2023/12/09 01:05:43;;;;;;;2.20;2.00;;;18.90;40.20;;;;;;5074059;28;20469;-89
2023/12/09 01:08:09;;;;;;;2.77;2.40;;;18.90;40.20;;;;;;5069471;28;20299;-88
2023/12/09 01:10:34;;;;;;;2.50;2.30;;;18.80;40.10;;;;;;5072382;28;20953;-88
2023/12/09 01:13:00;;;;;;;2.07;1.87;;;18.80;40.10;;;;;;5070797;28;20241;-87
2023/12/09 01:15:26;;;;;;;2.30;2.10;;;18.80;40.10;;;;;;5069891;28;20217;-88
2023/12/09 01:17:51;;;;;;;2.13;1.93;;;18.80;40.20;;;;;;5069306;28;20217;-88
2023/12/09 01:20:17;;;;;;;2.80;2.60;;;18.80;40.20;;;;;;5070312;28;20680;-88
2023/12/09 01:22:42;;;;;;;2.70;2.50;;;18.90;40.20;;;;;;5053055;28;20558;-89
2023/12/09 01:25:08;;;;;;;2.20;2.00;;;18.90;40.20;;;;;;5069662;28;20220;-89
2023/12/09 01:27:34;;;;;;;2.80;2.13;;;18.90;40.20;;;;;;5071291;28;20699;-87
2023/12/09 01:29:59;;;;;;;2.50;2.30;;;18.80;40.20;;;;;;5058086;28;20510;-89
2023/12/09 01:32:25;;;;;;;2.50;2.30;;;18.90;40.20;;;;;;5067435;28;20248;-87
2023/12/09 01:34:50;;;;;;;2.20;1.77;;;18.80;40.30;;;;;;5070648;28;20320;-88
2023/12/09 01:37:16;;;;;;;2.67;2.47;;;18.80;40.20;;;;;;5071522;28;20231;-86
2023/12/09 01:39:41;;;;;;;2.30;2.10;;;18.90;40.30;;;;;;5071635;28;20672;-87
2023/12/09 01:42:08;;;;;;;1.90;1.80;;;18.80;40.20;;;;;;5073174;28;20895;-89
2023/12/09 01:44:33;;;;;;;1.83;1.73;;;18.80;40.20;;;;;;5073141;28;20247;-88
2023/12/09 01:47:00;;;;;;;1.80;1.70;;;18.80;40.20;;;;;;5053141;28;20449;-87
2023/12/09 01:49:25;;;;;;;2.20;2.10;;;18.80;40.20;;;;;;5069619;28;20221;-88
2023/12/09 01:51:52;;;;;;;1.77;1.67;;;18.80;40.20;;;;;;5070049;28;20432;-88
2023/12/09 01:54:17;;;;;;;1.93;1.83;;;18.80;40.20;;;;;;5067060;28;20220;-88
2023/12/09 01:56:43;;;;;;;1.93;1.80;;;18.80;40.20;;;;;;5073141;28;20461;-89
2023/12/09 01:59:09;;;;;;;2.00;1.87;;;18.80;40.20;;;;;;5074624;28;20220;-87
2023/12/09 02:01:35;;;;;;;2.30;2.20;;;18.80;40.20;;;;;;5076151;28;20220;-88
2023/12/09 02:04:02;;;;;;;2.00;1.67;;;18.80;40.20;;;;;;5074251;28;20282;-88
2023/12/09 02:06:28;;;;;;;2.20;2.10;;;18.80;40.20;;;;;;5057361;28;21204;-87
2023/12/09 02:08:54;;;;;;;2.17;2.07;;;18.90;40.30;;;;;;5068533;28;20457;-86
2023/12/09 02:11:24;;;;;;;2.47;2.27;;;18.80;40.20;;;;;;5073537;28;20380;-87
2023/12/09 02:14:07;;;;;;;2.23;2.13;;;18.80;40.30;;;;;;5075987;28;20541;-89
2023/12/09 02:16:46;;;;;;;1.97;1.87;;;18.90;40.30;;;;;;5069945;28;20439;-88
2023/12/09 02:19:13;;;;;;;2.13;2.03;;;18.80;40.20;;;;;;5072018;28;20461;-89
2023/12/09 02:22:01;;;;;;;1.90;1.77;;;18.80;40.30;;;;;;5074006;28;20448;-88
2023/12/09 02:24:27;;;;;;;3.33;1.80;;;18.80;40.20;;;;;;5053328;28;20868;-87
2023/12/09 02:26:56;;;;;;;2.20;2.00;;;18.80;40.30;;;;;;5072946;28;20477;-88
2023/12/09 02:29:25;;;;;;;2.00;1.80;;;18.80;40.30;;;;;;5074185;28;20467;-88
2023/12/09 02:31:53;;;;;;;2.50;1.90;;;18.80;40.30;;;;;;5075678;28;20440;-89
2023/12/09 02:34:20;;;;;;;2.13;1.90;;;18.80;40.40;;;;;;5073585;28;20442;-86
2023/12/09 02:36:47;;;;;;;2.17;1.97;;;18.80;40.30;;;;;;5072658;28;20435;-88
2023/12/09 02:39:17;;;;;;;3.63;2.17;;;18.80;40.30;;;;;;5071205;28;20464;-86
2023/12/09 02:41:44;;;;;;;1.63;1.53;;;18.80;40.30;;;;;;5074496;28;20465;-86
2023/12/09 02:44:09;;;;;;;1.93;1.83;;;18.80;41.10;;;;;;5054833;27;20443;-87
2023/12/09 02:46:35;;;;;;;2.03;1.93;;;18.80;40.30;;;;;;5073339;28;21040;-88
2023/12/09 02:49:01;;;;;;;2.10;1.90;;;18.80;40.30;;;;;;5071998;28;20398;-90
2023/12/09 02:51:26;;;;;;;1.80;1.70;;;18.80;40.30;;;;;;5072080;28;20235;-88
2023/12/09 02:53:54;;;;;;;1.70;1.60;;;18.80;40.20;;;;;;5071748;28;20221;-90
2023/12/09 02:56:19;;;;;;;2.00;1.90;;;18.80;40.30;;;;;;5068025;27;20256;-86
2023/12/09 02:58:45;;;;;;;2.07;1.97;;;18.80;40.20;;;;;;5071535;28;21030;-88
2023/12/09 03:01:10;;;;;;;1.77;1.67;;;18.90;40.30;;;;;;5072987;28;20217;-87
2023/12/09 03:03:36;;;;;;;1.93;1.83;;;18.80;40.30;;;;;;5054583;28;20220;-89
2023/12/09 03:06:02;;;;;;;1.77;1.67;;;18.90;40.30;;;;;;5071508;28;20223;-89
2023/12/09 03:08:27;;;;;;;1.80;1.70;;;18.90;40.30;;;;;;5070536;28;20272;-86
2023/12/09 03:10:53;;;;;;;2.27;2.17;;;18.80;40.30;;;;;;5071305;28;20873;-86
2023/12/09 03:13:18;;;;;;;1.90;1.70;;;18.80;40.30;;;;;;5069712;28;21088;-88
2023/12/09 03:15:44;;;;;;;1.90;1.57;;;18.90;40.30;;;;;;5071909;28;20739;-89
2023/12/09 03:18:09;;;;;;;2.03;1.40;;;18.80;40.30;;;;;;5069970;28;21518;-89
2023/12/09 03:20:35;;;;;;;2.33;2.13;;;18.90;40.40;;;;;;5071856;28;20217;-86
2023/12/09 03:23:00;;;;;;;1.60;1.50;;;18.90;40.30;;;;;;5068786;28;20221;-87
2023/12/09 03:25:26;;;;;;;1.80;1.70;;;18.80;40.30;;;;;;5050710;28;20682;-88
2023/12/09 03:27:51;;;;;;;1.70;1.60;;;18.80;40.30;;;;;;5072659;27;21020;-84
2023/12/09 03:30:17;;;;;;;1.90;1.70;;;18.80;40.20;;;;;;5072550;28;20233;-88
2023/12/09 03:32:42;;;;;;;1.50;1.40;;;18.80;40.30;;;;;;5065463;28;21913;-88
2023/12/09 03:35:09;;;;;;;2.73;2.10;;;18.90;40.30;;;;;;5070145;28;20225;-88
2023/12/09 03:37:35;;;;;;;1.67;1.40;;;18.80;40.30;;;;;;5069474;28;20240;-87
2023/12/09 03:40:01;;;;;;;1.87;1.77;;;18.90;40.40;;;;;;5070693;28;20569;-88
2023/12/09 03:42:27;;;;;;;1.67;1.57;;;18.80;40.30;;;;;;5070317;28;20229;-89
2023/12/09 03:44:52;;;;;;;1.57;1.47;;;18.80;40.30;;;;;;5065720;28;20436;-87
2023/12/09 03:47:18;;;;;;;1.70;1.60;;;18.80;40.30;;;;;;5070298;28;20244;-89
2023/12/09 03:49:44;;;;;;;1.80;1.70;;;18.80;40.30;;;;;;5068365;27;21384;-87
2023/12/09 03:52:09;;;;;;;1.90;1.80;;;18.80;40.30;;;;;;5071175;28;20232;-88
2023/12/09 03:54:37;;;;;;;2.10;2.00;;;18.90;40.40;;;;;;5067928;28;20331;-88
2023/12/09 03:57:03;;;;;;;1.70;1.60;;;18.80;40.30;;;;;;5070117;28;20216;-88
2023/12/09 03:59:29;;;;;;;2.80;1.80;;;18.80;40.30;;;;;;5068349;28;20820;-88
2023/12/09 04:01:54;;;;;;;1.63;1.50;;;18.90;40.40;;;;;;5067435;27;20568;-88
2023/12/09 04:04:20;;;;;;;1.90;1.80;;;18.80;40.30;;;;;;5066971;28;20372;-88
2023/12/09 04:06:45;;;;;;;1.70;1.60;;;18.90;40.40;;;;;;5068311;28;20216;-88
2023/12/09 04:09:11;;;;;;;2.37;1.70;;;18.90;40.40;;;;;;5068999;28;21677;-90
2023/12/09 04:11:37;;;;;;;1.50;1.40;;;18.80;40.30;;;;;;5069896;28;20904;-87
2023/12/09 04:14:03;;;;;;;1.90;1.80;;;18.80;40.40;;;;;;5067839;28;20251;-89
2023/12/09 04:16:29;;;;;;;1.40;1.30;;;18.80;40.30;;;;;;5071304;28;20229;-86
2023/12/09 04:18:55;;;;;;;1.87;1.70;;;18.80;40.30;;;;;;5067882;28;20440;-88
2023/12/09 04:21:21;;;;;;;1.47;1.37;;;18.80;40.30;;;;;;5072592;28;20274;-88
2023/12/09 04:23:47;;;;;;;1.70;1.60;;;18.80;40.30;;;;;;5053247;28;20993;-89
2023/12/09 04:26:13;;;;;;;1.77;1.67;;;18.80;40.30;;;;;;5069068;28;20435;-89
2023/12/09 04:28:38;;;;;;;1.67;1.57;;;18.80;40.30;;;;;;5065907;28;20479;-87
2023/12/09 04:31:04;;;;;;;1.77;1.67;;;18.90;40.50;;;;;;5068361;28;20236;-85
2023/12/09 04:33:30;;;;;;;2.23;2.03;;;18.80;40.40;;;;;;5068114;28;20700;-90
2023/12/09 04:35:55;;;;;;;1.63;1.53;;;18.80;40.30;;;;;;5070174;28;20293;-90
2023/12/09 04:38:21;;;;;;;1.50;1.40;;;18.90;40.50;;;;;;5069882;28;20224;-89
2023/12/09 04:40:47;;;;;;;2.23;2.13;;;18.80;40.40;;;;;;5069887;28;20229;-88
2023/12/09 04:43:12;;;;;;;1.30;1.20;;;18.80;40.30;;;;;;5067473;28;20256;-89
2023/12/09 04:45:38;;;;;;;1.63;1.50;;;18.80;40.40;;;;;;5068142;28;20357;-88
2023/12/09 04:48:04;;;;;;;1.53;1.43;;;18.80;40.30;;;;;;5066447;28;20220;-90
2023/12/09 04:50:30;;;;;;;1.60;1.50;;;18.90;40.30;;;;;;5070667;28;20710;-91
2023/12/09 04:52:55;;;;;;;1.60;1.50;;;18.90;40.30;;;;;;5067837;28;20221;-88
2023/12/09 04:55:21;;;;;;;1.80;1.70;;;18.90;40.30;;;;;;5070929;27;20216;-90
2023/12/09 04:57:47;;;;;;;1.60;1.50;;;18.90;40.30;;;;;;5067646;28;20226;-88
2023/12/09 05:00:13;;;;;;;2.47;1.70;;;18.90;40.30;;;;;;5068294;28;20307;-91
2023/12/09 05:02:39;;;;;;;1.50;1.40;;;18.90;40.30;;;;;;5068398;28;20433;-86
2023/12/09 05:05:04;;;;;;;1.93;1.60;;;18.90;40.20;;;;;;5066004;28;20780;-89
2023/12/09 05:07:30;;;;;;;1.70;1.60;;;18.90;40.30;;;;;;5068636;28;20323;-88
2023/12/09 05:09:56;;;;;;;1.70;1.60;;;18.90;40.20;;;;;;5066284;28;20248;-89
2023/12/09 05:12:22;;;;;;;1.50;1.33;;;18.90;40.20;;;;;;5067921;28;20527;-86
2023/12/09 05:14:47;;;;;;;1.83;1.70;;;18.90;40.20;;;;;;5065810;28;20308;-87
2023/12/09 05:17:14;;;;;;;1.53;1.43;;;18.90;40.20;;;;;;5069214;28;20225;-91
2023/12/09 05:19:39;;;;;;;1.90;1.80;;;18.90;40.20;;;;;;5068952;28;20229;-87
2023/12/09 05:22:05;;;;;;;1.70;1.60;;;18.90;40.20;;;;;;5067465;28;20432;-89
2023/12/09 05:24:30;;;;;;;1.40;1.30;;;18.90;40.20;;;;;;5068022;28;20252;-90
2023/12/09 05:26:57;;;;;;;1.70;1.60;;;18.90;40.20;;;;;;5067688;28;20306;-90
2023/12/09 05:29:23;;;;;;;1.80;1.60;;;18.90;40.20;;;;;;5067213;28;20746;-86
2023/12/09 05:31:48;;;;;;;1.57;1.30;;;19.00;40.20;;;;;;5067357;28;20562;-86
2023/12/09 05:34:14;;;;;;;1.70;1.57;;;18.90;40.10;;;;;;5066196;28;20225;-89
2023/12/09 05:36:39;;;;;;;1.60;1.30;;;19.00;40.20;;;;;;5066580;28;20220;-86
2023/12/09 05:39:05;;;;;;;1.80;1.70;;;19.00;40.30;;;;;;5062631;28;20278;-91
2023/12/09 05:41:31;;;;;;;1.40;1.30;;;19.00;40.30;;;;;;5072380;28;20232;-88
2023/12/09 05:43:57;;;;;;;1.70;1.60;;;19.00;40.20;;;;;;5067218;28;20240;-91
2023/12/09 05:46:22;;;;;;;1.47;1.37;;;18.90;40.20;;;;;;5074417;28;20314;-90
2023/12/09 05:48:48;;;;;;;1.60;1.50;;;19.00;40.20;;;;;;5060915;28;20590;-91
2023/12/09 05:51:14;;;;;;;1.60;1.50;;;19.00;40.30;;;;;;5071036;28;20298;-88
2023/12/09 05:53:40;;;;;;;1.30;1.20;;;19.00;40.20;;;;;;5075279;28;20477;-92
2023/12/09 05:56:09;;;;;;;1.30;1.20;;;19.00;40.30;;;;;;5077046;28;20278;-91
2023/12/09 05:58:35;;;;;;;1.37;1.27;;;19.00;40.20;;;;;;5072379;28;20502;-87
2023/12/09 06:01:00;;;;;;;1.60;1.50;;;19.00;40.20;;;;;;5076819;27;20576;-87
2023/12/09 06:03:26;;;;;;;1.83;1.60;;;19.00;40.20;;;;;;5051651;28;20213;-86
2023/12/09 06:05:51;;;;;;;2.50;1.37;;;19.00;40.30;;;;;;5077521;28;20221;-87
2023/12/09 06:08:17;;;;;;;1.40;1.30;;;19.00;40.20;;;;;;5060943;28;20854;-87
2023/12/09 06:10:42;;;;;;;1.33;1.23;;;19.00;40.20;;;;;;5074324;28;20282;-87
2023/12/09 06:13:08;;;;;;;1.40;1.30;;;19.00;40.20;;;;;;5075059;28;20290;-88
2023/12/09 06:15:34;;;;;;;1.83;1.73;;;19.00;40.30;;;;;;5071553;28;20228;-88
2023/12/09 06:17:59;;;;;;;1.63;1.53;;;19.00;40.30;;;;;;5056644;28;20220;-87
2023/12/09 06:20:25;;;;;;;1.93;1.40;;;19.00;40.20;;;;;;5074071;28;20537;-86
2023/12/09 06:22:50;;;;;;;1.53;1.43;;;19.00;40.20;;;;;;5076836;27;20227;-87
2023/12/09 06:25:16;;;;;;;1.53;1.43;;;19.00;40.20;;;;;;5057724;28;20225;-88
2023/12/09 06:27:41;;;;;;;2.03;1.93;;;19.00;40.20;;;;;;5054949;28;20237;-89
2023/12/09 06:30:09;;;;;;;1.50;1.40;;;19.00;40.20;;;;;;5074245;28;20224;-88
2023/12/09 06:32:35;;;;;;;1.40;1.30;;;19.00;40.20;;;;;;5073954;28;20246;-88
2023/12/09 06:35:01;;;;;;;1.50;1.40;;;19.00;40.20;;;;;;5072533;28;21111;-87
2023/12/09 06:37:26;;;;;;;1.37;1.27;;;19.00;40.20;;;;;;5072915;28;20226;-88
2023/12/09 06:39:52;;;;;;;1.67;1.50;;;19.00;40.20;;;;;;5073105;28;21295;-87
2023/12/09 06:42:18;;;;;;;1.40;1.30;;;19.00;40.20;;;;;;5074643;28;20290;-89
2023/12/09 06:44:43;;;;;;;1.40;1.30;;;19.00;40.20;;;;;;5074901;28;20657;-89
2023/12/09 06:47:11;;;;;;;1.70;1.60;;;19.00;40.20;;;;;;5077471;28;20225;-89
2023/12/09 06:49:38;;;;;;;1.20;1.10;;;19.00;40.20;;;;;;5077255;28;20205;-89
2023/12/09 06:52:03;;;;;;;2.17;1.40;;;19.00;40.20;;;;;;5078478;28;20439;-89
2023/12/09 06:54:29;;;;;;;1.30;1.20;;;19.00;40.20;;;;;;5075307;28;20431;-89
2023/12/09 06:56:56;;;;;;;1.77;1.57;;;19.00;40.20;;;;;;5077054;27;20216;-88
2023/12/09 06:59:22;;;;;;;1.50;1.40;;;19.00;40.20;;;;;;5078490;28;20244;-84
2023/12/09 07:01:49;;;;;;;1.50;1.40;;;19.00;40.20;;;;;;5077545;28;20541;-90
2023/12/09 07:04:15;;;;;;;1.33;1.23;;;19.00;40.20;;;;;;5074707;28;20227;-90
2023/12/09 07:06:40;;;;;;;1.30;1.20;;;19.00;40.20;;;;;;5079371;27;21053;-90
2023/12/09 07:09:07;;;;;;;1.53;1.30;;;19.00;40.20;;;;;;5078610;28;20485;-88
2023/12/09 07:11:33;;;;;;;1.20;1.10;;;19.00;40.20;;;;;;5077393;27;20228;-87
2023/12/09 07:13:58;;;;;;;1.50;1.40;;;19.00;40.10;;;;;;5077004;28;20477;-88
2023/12/09 07:16:24;;;;;;;1.40;1.30;;;19.00;40.10;;;;;;5078653;27;20259;-89
2023/12/09 07:18:50;;;;;;;3.03;1.30;;;19.00;40.10;;;;;;5076319;28;20232;-87
2023/12/09 07:21:17;;;;;;;1.70;1.60;;;19.00;40.10;;;;;;5075011;28;20229;-88
2023/12/09 07:23:43;;;;;;;1.10;1.00;;;19.00;40.10;;;;;;5073708;28;20448;-85
2023/12/09 07:26:09;;;;;;;1.40;1.30;;;19.00;40.10;;;;;;5072996;28;20779;-87
2023/12/09 07:28:35;;;;;;;1.70;1.43;;;19.00;40.10;;;;;;5073340;28;22233;-88
2023/12/09 07:31:00;;;;;;;1.70;1.60;;;19.00;40.10;;;;;;5077017;28;20236;-87
2023/12/09 07:33:26;;;;;;;1.20;1.10;;;19.00;40.10;;;;;;5062098;28;20231;-88
2023/12/09 07:35:52;;;;;;;1.90;1.60;;;19.00;40.20;;;;;;5063359;28;20245;-86
2023/12/09 07:38:18;;;;;;;2.40;1.50;;;19.00;40.10;;;;;;5059923;28;20889;-88
2023/12/09 07:40:44;;;;;;;1.30;1.20;;;19.00;40.00;;;;;;5076391;28;20221;-87
2023/12/09 07:43:09;;;;;;;1.50;1.40;;;19.00;40.00;;;;;;5076139;28;20221;-86
2023/12/09 07:45:35;;;;;;;1.93;1.40;;;19.00;39.90;;;;;;5081334;28;20458;-89
2023/12/09 07:48:01;;;;;;;1.40;1.30;;;19.00;39.90;;;;;;5079012;28;20220;-88
2023/12/09 07:50:27;;;;;;;1.60;1.50;;;19.00;39.90;;;;;;5072292;28;20707;-88
2023/12/09 07:52:53;;;;;;;1.50;1.40;;;19.00;39.90;;;;;;5067599;28;20764;-87
2023/12/09 07:55:18;;;;;;;2.93;1.37;;;19.00;39.80;;;;;;5047041;28;20225;-90
2023/12/09 07:57:44;;;;;;;1.73;1.30;;;18.90;39.70;;;;;;5067053;28;20225;-87
2023/12/09 08:00:10;;;;;;;1.80;1.50;;;18.90;39.70;;;;;;5063683;27;20216;-87
2023/12/09 08:02:36;;;;;;;1.50;1.40;;;18.90;39.70;;;;;;5065997;28;20240;-87
2023/12/09 08:05:02;;;;;;;1.77;1.67;;;18.90;39.60;;;;;;5068047;28;20449;-86
2023/12/09 08:07:28;;;;;;;1.57;1.40;;;18.90;39.60;;;;;;5066459;28;20228;-88
2023/12/09 08:09:53;;;;;;;1.33;1.10;;;18.90;39.60;;;;;;5066249;28;20217;-87
2023/12/09 08:12:19;;;;;;;1.53;1.40;;;18.90;39.50;;;;;;5069031;27;20233;-87
2023/12/09 08:14:44;;;;;;;1.30;1.20;;;18.90;39.50;;;;;;5068699;28;20212;-91
2023/12/09 08:17:10;;;;;;;1.43;1.33;;;18.90;39.50;;;;;;5047922;28;20787;-91
2023/12/09 08:19:35;;;;;;;1.70;1.53;;;18.90;39.50;;;;;;5046231;28;20239;-89
2023/12/09 08:22:02;;;;;;;1.60;1.50;;;18.90;39.50;;;;;;5068064;28;20217;-90
2023/12/09 08:24:28;;;;;;;1.47;1.37;;;18.90;39.40;;;;;;5068067;28;20300;-89
2023/12/09 08:26:54;;;;;;;1.40;1.30;;;18.90;39.40;;;;;;5070787;28;20486;-89
2023/12/09 08:29:20;;;;;;;1.50;1.40;;;18.90;39.30;;;;;;5070328;28;20489;-87
2023/12/09 08:31:49;;;;;;;2.57;1.50;;;18.90;39.40;;;;;;5070094;28;20448;-87
2023/12/09 08:34:17;;;;;;;1.60;1.40;;;18.90;39.30;;;;;;5049169;28;21518;-88
2023/12/09 08:36:44;;;;;;;2.10;1.40;;;18.90;39.30;;;;;;5069699;28;20506;-89
2023/12/09 08:39:09;;;;;;;2.17;1.30;;;18.90;39.40;;;;;;5064844;28;20818;-88
2023/12/09 08:41:35;;;;;;;1.47;1.23;;;18.90;40.10;;;;;;5046967;28;20493;-87
2023/12/09 08:44:03;;;;;;;2.20;1.60;;;18.90;39.40;;;;;;5063640;28;20767;-85
2023/12/09 08:46:29;;;;;;;1.40;1.30;;;18.80;39.30;;;;;;5047486;28;20224;-86
2023/12/09 08:48:54;;;;;;;1.33;1.23;;;18.80;39.30;;;;;;5063980;28;20439;-89
2023/12/09 08:51:20;;;;;;;1.43;1.30;;;18.80;39.40;;;;;;5066205;28;20241;-89
2023/12/09 08:53:45;;;;;;;2.93;1.97;;;18.90;39.40;;;;;;5066419;28;20221;-88
2023/12/09 08:56:11;;;;;;;2.90;2.10;;;18.80;39.30;;;;;;5067928;27;21067;-88
2023/12/09 08:58:36;;;;;;;1.40;1.30;;;18.80;39.40;;;;;;5065351;28;20212;-86
2023/12/09 09:01:02;;;;;;;1.40;1.30;;;18.80;39.30;;;;;;5067693;28;20229;-89
2023/12/09 09:03:28;;;;;;;1.53;1.43;;;18.80;39.30;;;;;;5069038;28;20236;-90
2023/12/09 09:05:53;;;;;;;2.00;1.80;;;18.80;39.40;;;;;;5071898;27;20282;-90
2023/12/09 09:08:19;;;;;;;1.80;1.70;;;18.80;39.30;;;;;;5069165;28;20679;-88
2023/12/09 09:10:45;;;;;;;1.73;1.63;;;18.80;39.30;;;;;;5069497;28;21533;-88
2023/12/09 09:13:11;;;;;;;1.70;1.60;;;18.80;39.40;;;;;;5068914;28;20233;-89
2023/12/09 09:15:36;;;;;;;2.17;1.97;;;18.80;39.30;;;;;;5051976;28;20938;-88
2023/12/09 09:18:02;;;;;;;1.60;1.43;;;18.80;39.40;;;;;;5068692;27;20307;-90
2023/12/09 09:20:28;;;;;;;1.73;1.63;;;18.80;39.40;;;;;;5056042;28;20445;-90
2023/12/09 09:22:53;;;;;;;3.13;1.70;;;18.80;39.40;;;;;;5072688;28;20464;-91
2023/12/09 09:25:19;;;;;;;2.60;1.53;;;18.80;39.40;;;;;;5077446;28;20676;-87
2023/12/09 09:27:45;;;;;;;1.60;1.50;;;18.80;39.40;;;;;;5075653;28;20225;-87
2023/12/09 09:30:11;;;;;;;2.10;1.80;;;18.80;39.50;;;;;;5075246;28;20228;-93
2023/12/09 09:32:37;;;;;;;1.87;1.77;;;18.80;39.40;;;;;;5077128;28;20452;-90
2023/12/09 09:35:03;;;;;;;2.57;2.07;;;18.80;39.40;;;;;;5076178;28;20972;-92
2023/12/09 09:37:29;;;;;;;2.90;1.87;;;18.80;39.40;;;;;;5074553;28;20265;-90
2023/12/09 09:39:54;;;;;;;1.80;1.70;;;18.80;39.50;;;;;;5078579;28;20432;-89
2023/12/09 09:42:36;;;;;;;3.00;1.87;;;18.70;39.40;;;;;;5075552;28;20251;-92
2023/12/09 09:45:20;;;;;;;2.40;2.20;;;18.70;39.30;;;;;;5077741;28;20236;-92
2023/12/09 09:47:48;;;;;;;1.90;1.80;;;18.70;39.30;;;;;;5062426;28;21366;-88
2023/12/09 09:50:21;;;;;;;2.30;2.10;;;18.70;39.40;;;;;;5071575;28;20441;-90
2023/12/09 09:52:48;;;;;;;2.67;1.70;;;18.80;39.40;;;;;;5069245;28;20465;-89
2023/12/09 09:55:15;;;;;;;2.57;2.43;;;18.70;39.30;;;;;;5051508;28;20915;-91
2023/12/09 09:57:42;;;;;;;3.00;1.80;;;18.70;39.30;;;;;;5071983;28;20440;-89
2023/12/09 10:00:12;;;;;;;2.33;1.77;;;18.70;39.40;;;;;;5059372;28;20464;-88
2023/12/09 10:02:43;;;;;;;3.57;1.70;;;18.70;39.40;;;;;;5077977;27;20481;-89
2023/12/09 10:05:10;;;;;;;1.70;1.60;;;18.70;39.40;;;;;;5058445;28;20760;-89
2023/12/09 10:07:36;;;;;;;2.40;2.20;;;18.70;39.50;;;;;;5077067;28;20522;-88
2023/12/09 10:10:03;;;;;;;2.40;2.03;;;18.70;39.50;;;;;;5071228;28;20451;-88
2023/12/09 10:12:29;;;;;;;1.73;1.57;;;18.70;39.40;;;;;;5075221;28;20436;-86
2023/12/09 10:14:56;;;;;;;3.53;1.63;;;18.70;39.50;;;;;;5078863;28;20541;-86
2023/12/09 10:17:22;;;;;;;2.77;1.63;;;18.70;39.40;;;;;;5075940;28;20816;-87
2023/12/09 10:19:48;;;;;;;2.50;2.17;;;18.70;39.40;;;;;;5079896;28;20427;-86
2023/12/09 10:22:14;;;;;;;1.80;1.70;;;18.80;39.40;;;;;;5078503;27;20444;-86
2023/12/09 10:24:39;;;;;;;1.97;1.87;;;18.70;39.30;;;;;;5063593;28;20236;-84
2023/12/09 10:27:05;;;;;;;2.33;2.23;;;18.70;39.30;;;;;;5059892;28;20231;-84
2023/12/09 10:29:31;;;;;;;2.80;2.00;;;18.70;39.30;;;;;;5062838;28;20637;-85
2023/12/09 10:32:00;;;;;;;1.93;1.73;;;18.70;39.30;;;;;;5072052;28;21139;-84
2023/12/09 10:34:25;;;;;;;1.70;1.60;;;18.70;39.30;;;;;;5078198;28;20229;-84
2023/12/09 10:36:51;;;;;;;2.63;1.70;;;18.70;39.30;;;;;;5061971;28;20575;-84
2023/12/09 10:39:19;;;;;;;1.93;1.73;;;18.70;39.30;;;;;;5078199;28;20578;-84
2023/12/09 10:41:45;;;;;;;2.13;1.93;;;18.70;39.30;;;;;;5075225;28;20237;-85
2023/12/09 10:44:11;;;;;;;2.23;1.70;;;18.70;39.40;;;;;;5072328;28;20440;-84
2023/12/09 10:46:37;;;;;;;1.60;1.50;;;18.70;39.30;;;;;;5073581;28;20493;-84
2023/12/09 10:49:02;;;;;;;1.87;1.70;;;18.70;39.40;;;;;;5075101;28;21442;-84
2023/12/09 10:51:28;;;;;;;2.80;1.80;;;18.80;39.50;;;;;;5074693;28;20233;-85
2023/12/09 10:53:53;;;;;;;2.10;1.90;;;18.80;39.50;;;;;;5072239;28;20227;-85
2023/12/09 10:56:20;;;;;;;1.80;1.70;;;18.80;39.40;;;;;;5070705;27;20221;-85
2023/12/09 10:58:46;;;;;;;2.20;1.70;;;18.80;39.50;;;;;;5068008;28;20258;-85
2023/12/09 11:01:13;;;;;;;1.50;1.40;;;18.70;39.30;;;;;;5064728;28;20472;-85
2023/12/09 11:03:39;;;;;;;2.83;2.20;;;18.80;39.50;;;;;;5068334;28;20436;-84
2023/12/09 11:06:07;;;;;;;1.97;1.77;;;18.70;39.30;;;;;;5071620;28;20862;-85
2023/12/09 11:08:35;;;;;;;2.13;1.93;;;18.80;39.40;;;;;;5053339;28;20265;-84
2023/12/09 11:11:05;;;;;;;1.67;1.57;;;18.80;39.40;;;;;;5071815;28;20956;-85
2023/12/09 11:13:33;;;;;;;1.87;1.77;;;18.80;39.40;;;;;;5070738;28;20433;-85
2023/12/09 11:16:16;;;;;;;1.50;1.40;;;18.80;39.40;;;;;;5076946;28;20436;-84
2023/12/09 11:18:49;;;;;;;1.60;1.50;;;18.70;39.30;;;;;;5063983;28;20535;-85
2023/12/09 11:21:16;;;;;;;1.63;1.40;;;18.80;39.40;;;;;;5083056;28;20522;-84
2023/12/09 11:23:52;;;;;;;2.13;1.70;;;18.80;39.40;;;;;;5080174;28;20427;-85
2023/12/09 11:26:25;;;;;;;1.70;1.60;;;18.80;39.40;;;;;;5080362;28;20547;-85
2023/12/09 11:29:10;;;;;;;1.70;1.60;;;18.80;39.40;;;;;;5063835;28;20444;-85
2023/12/09 11:31:37;;;;;;;1.80;1.70;;;18.80;39.40;;;;;;5079654;28;20440;-85
2023/12/09 11:34:14;;;;;;;1.50;1.40;;;18.80;39.40;;;;;;5080466;28;20465;-85
2023/12/09 11:36:41;;;;;;;4.20;1.40;;;18.70;39.40;;;;;;5081516;28;20432;-85
2023/12/09 11:39:09;;;;;;;1.97;1.50;;;18.80;39.40;;;;;;5080785;28;20441;-84
2023/12/09 11:41:36;;;;;;;2.70;1.80;;;18.70;39.40;;;;;;5081600;28;20530;-85
2023/12/09 11:44:02;;;;;;;2.27;1.60;;;18.80;39.40;;;;;;5057724;28;20453;-85
2023/12/09 11:46:32;;;;;;;2.03;1.93;;;18.80;39.40;;;;;;5060718;28;20965;-84
2023/12/09 11:48:59;;;;;;;1.70;1.60;;;18.70;39.40;;;;;;5061535;27;21264;-85
2023/12/09 11:51:26;;;;;;;2.13;1.67;;;18.80;39.40;;;;;;5083332;27;20454;-86
2023/12/09 11:54:00;;;;;;;2.47;1.60;;;18.80;39.50;;;;;;5085809;28;20922;-87
2023/12/09 11:56:26;;;;;;;1.60;1.50;;;18.80;39.50;;;;;;5086353;28;20933;-88
2023/12/09 11:58:52;;;;;;;1.30;1.20;;;18.80;39.40;;;;;;5086267;28;20533;-89
2023/12/09 12:01:18;;;;;;;2.50;1.80;;;18.70;39.40;;;;;;5086679;28;20435;-90
2023/12/09 12:03:48;;;;;;;2.50;1.70;;;18.70;39.40;;;;;;5068512;28;20979;-89
2023/12/09 12:06:15;;;;;;;1.47;1.37;;;18.70;39.40;;;;;;5081535;28;20785;-89
2023/12/09 12:08:45;;;;;;;1.63;1.50;;;18.70;39.40;;;;;;5062546;28;20469;-87
2023/12/09 12:11:11;;;;;;;1.67;1.57;;;18.70;39.50;;;;;;5079392;28;20458;-87
2023/12/09 12:13:36;;;;;;;1.73;1.50;;;18.80;39.50;;;;;;5078957;28;20453;-88
2023/12/09 12:16:02;;;;;;;4.30;1.50;;;18.80;39.50;;;;;;5082420;28;20221;-87
2023/12/09 12:18:28;;;;;;;1.60;1.50;;;18.70;39.50;;;;;;5084871;28;20236;-87
2023/12/09 12:20:55;;;;;;;1.93;1.73;;;18.80;39.50;;;;;;5086698;28;20464;-88
2023/12/09 12:23:20;;;;;;;1.53;1.43;;;18.70;39.40;;;;;;5083226;28;20676;-88
2023/12/09 12:25:52;;;;;;;1.50;1.40;;;18.70;39.50;;;;;;5078568;28;20433;-88
2023/12/09 12:28:18;;;;;;;1.80;1.50;;;18.80;39.50;;;;;;5076486;28;20218;-87
2023/12/09 12:30:43;;;;;;;1.60;1.50;;;18.70;39.50;;;;;;5077526;28;20487;-87
2023/12/09 12:33:09;;;;;;;1.60;1.50;;;18.70;39.50;;;;;;5078863;28;20301;-86
2023/12/09 12:35:35;;;;;;;2.10;1.90;;;18.70;39.50;;;;;;5079554;27;20232;-88
2023/12/09 12:38:00;;;;;;;1.40;1.30;;;18.70;39.50;;;;;;5078789;28;20488;-88
2023/12/09 12:40:26;;;;;;;1.67;1.30;;;18.70;39.50;;;;;;5077803;28;20256;-87
2023/12/09 12:42:53;;;;;;;2.50;1.30;;;18.70;39.50;;;;;;5079394;28;20321;-87